CDT,Max TemperatureF,Mean TemperatureF,Min TemperatureF,Max Dew PointF,MeanDew PointF,Min DewpointF,Max Humidity, Mean Humidity, Min Humidity, Max Sea Level PressureIn, Mean Sea Level PressureIn, Min Sea Level PressureIn, Max VisibilityMiles, Mean VisibilityMiles, Min VisibilityMiles, Max Wind SpeedMPH, Mean Wind SpeedMPH, Max Gust SpeedMPH,PrecipitationIn, CloudCover, Events, WindDirDegrees
2012-10-1,66,50,33,45,35,30,100,64,26,30.18,30.07,29.88,10,10,10,16,10,22,0.00,0,,274
2012-10-2,71,56,39,41,36,32,81,48,31,29.86,29.69,29.58,10,10,10,24,14,32,0.00,0,,252
2012-10-3,44,40,35,41,36,32,100,89,75,30.20,30.03,29.81,10,7,2,21,11,26,1.49,5,Rain,356
2012-10-4,41,34,26,36,29,23,100,79,56,30.28,30.24,30.20,10,10,5,28,18,36,0.08,5,Rain,334
2012-10-5,35,29,23,30,24,19,93,82,60,30.37,30.31,30.27,10,9,2,21,13,28,0.10,4,Rain-Snow,313
2012-10-6,46,32,17,27,20,12,100,68,27,30.37,30.28,30.05,10,10,10,20,8,24,0.00,0,,265
2012-10-7,51,42,32,36,29,25,87,64,44,30.04,29.85,29.69,10,10,10,15,10,22,0.00,4,,255
2012-10-8,50,44,37,41,35,27,100,74,46,29.67,29.60,29.50,10,10,4,28,13,39,0.01,5,Rain,282
2012-10-9,39,34,30,32,29,25,100,80,56,30.00,29.89,29.65,10,10,5,22,16,30,0.04,6,Rain-Snow,306
2012-10-10,37,30,24,36,30,23,100,94,81,30.01,29.94,29.86,10,9,3,13,6,18,0.02,4,Rain-Snow,266
2012-10-11,41,32,24,32,26,19,100,77,45,30.32,30.23,30.02,10,10,10,16,8,22,0.01,3,,300
2012-10-12,53,40,26,28,26,21,86,60,35,30.30,29.97,29.66,10,10,10,23,12,36,0.00,2,,172
2012-10-13,62,45,28,34,31,27,93,63,32,29.92,29.73,29.60,10,10,7,12,5,,0.00,0,,24
2012-10-14,60,42,23,43,33,23,100,78,39,29.98,29.92,29.85,10,7,0,10,4,,0.00,1,Fog,170
2012-10-15,71,54,37,41,39,34,87,60,31,29.84,29.64,29.54,10,10,8,21,10,26,0.00,2,Rain,215
2012-10-16,64,48,33,52,42,34,100,77,49,29.58,29.41,29.21,10,10,5,12,5,,0.03,1,Rain,198
2012-10-17,51,45,39,52,43,39,100,95,87,29.31,29.23,29.17,10,8,2,33,16,44,0.25,7,Rain,282
2012-10-18,41,40,39,39,38,36,100,91,81,29.89,29.60,29.31,10,9,5,34,29,50,0.38,8,Rain,327
2012-10-19,41,37,33,36,33,32,93,84,75,29.89,29.80,29.66,10,10,10,21,12,24,0.00,7,,305
2012-10-20,57,45,33,41,37,32,100,80,51,29.66,29.56,29.49,10,10,10,16,10,21,0.00,0,,153
2012-10-21,48,39,30,41,34,27,93,75,46,30.08,29.87,29.60,10,10,9,18,7,23,0.01,2,Rain,306
2012-10-22,42,36,30,36,30,27,93,76,57,30.12,30.05,29.90,10,10,5,24,9,29,0.00,5,Rain,78
2012-10-23,46,40,35,46,41,32,100,99,87,29.85,29.71,29.63,10,6,1,23,14,28,0.55,8,Rain,180
2012-10-24,35,32,28,34,28,25,100,84,75,30.02,29.94,29.81,10,10,10,21,14,26,0.00,8,,283
2012-10-25,33,32,32,27,24,19,80,72,60,30.16,30.04,29.99,10,10,2,31,19,41,0.08,8,Rain-Snow,298
2012-10-26,32,24,17,25,20,14,86,71,51,30.28,30.23,30.16,10,10,1,25,17,37,0.14,6,Snow,295
2012-10-27,30,22,15,19,16,14,93,75,51,30.28,30.25,30.22,10,10,10,8,4,,0.00,5,,277
2012-10-28,30,22,14,28,20,10,100,85,64,30.28,30.20,30.12,10,8,2,16,10,21,0.15,6,Snow,107
2012-10-29,42,35,28,37,33,28,100,95,81,30.11,30.08,30.05,10,7,2,18,14,23,0.07,6,Rain-Snow,108
2012-10-30,46,40,35,41,38,34,100,93,81,30.05,30.00,29.95,10,8,3,15,12,23,0.01,6,Rain,141
2012-10-31,42,36,30,41,34,28,100,94,81,30.14,30.01,29.93,10,8,4,17,7,25,0.01,6,Rain,17